Latest Coastal Weather Observations for Sydney Airport

IDN60701

Issued at 1:11 am EDT Friday 24 March 2017 (issued every 10 minutes, with the page automatically refreshed every 10 minutes)

About coastal observations | Map of coastal stations | Coastal observations for NSW | Marine services | Other Formats
Station Details ID: 066037 Name: SYDNEY AIRPORT AMO Lat: -33.95 Lon: 151.17 Height: 6.0 m
Data from the previous 72 hours. | See also: Recent months at Sydney Airport
Date/Time
EDT
Temp
°C
Wind Pressure Rain since
9am
mm
Weather Cloud Vis
km
Sea
Height
m
Swell
Dir  Spd
kts
Gust
kts
hPa Trend Height
m
Period
s
Dir
24/01:00am 20.1 SSE 10 14 1018.8 - 4.6 - Mostly clear 10 - - - -
24/12:30am 19.4 SSE 15 20 1018.6 - 4.6 Drizzle Mostly clear 10 - - - -
24/12:06am 19.5 S 19 28 1018.4 - 4.6 Drizzle Partly cloudy 10 - - - -
24/12:03am 19.6 SSW 17 27 1018.5 - 4.6 Drizzle Partly cloudy 10 - - - -
24/12:00am 19.6 SSW 16 21 1018.5 F 4.6 Drizzle Mostly cloudy 15 - - - -
 
Date/Time
EDT
Temp
°C
Wind Pressure Rain since
9am
mm
Weather Cloud Vis
km
Sea
Height
m
Swell
Dir  Spd
kts
Gust
kts
hPa Trend Height
m
Period
s
Dir
23/11:30pm 19.8 SSW 15 19 1018.7 - 4.6 Showers Mostly clear 10 - - - -
23/11:00pm 19.4 SSW 14 16 1018.9 - 4.6 - Mostly clear 10 - - - -
23/10:40pm 19.4 SW 11 15 1018.9 - 4.4 Showers Partly cloudy 10 - - - -
23/10:30pm 19.5 SSW 11 16 1019.0 - 4.2 Showers Partly cloudy 10 - - - -
23/10:00pm 19.5 SSW 14 16 1018.9 - 4.0 - Partly cloudy 10 - - - -
23/09:30pm 19.7 SW 15 19 1018.8 - 4.0 Showers Partly cloudy 9 - - - -
23/09:00pm 19.8 SSW 13 16 1018.5 F 3.6 Showers Mostly cloudy 9 - - - -
23/08:46pm 19.9 SW 12 16 1018.4 - 3.2 Showers Partly cloudy 9 - - - -
23/08:30pm 19.6 SW 10 15 1018.3 - 3.0 Showers Partly cloudy 10 - - - -
23/08:00pm 19.8 SSW 11 16 1017.6 - 3.0 - Mostly clear 10 - - - -
23/07:30pm 20.0 SSW 11 15 1017.1 - 3.0 - Mostly clear 10 - - - -
23/07:00pm 19.9 SW 12 14 1017.2 - 3.0 - Mostly clear 10 - - - -
23/06:30pm 19.7 SSW 12 14 1017.3 - 2.8 Showers Partly cloudy 7 - - - -
23/06:00pm 19.7 SW 12 15 1017.5 R 1.8 Showers Mostly cloudy 7 - - - -
23/05:30pm 20.2 SW 14 17 1017.5 - 0.4 Showers Mostly clear 7 - - - -
23/05:00pm 20.4 SSW 11 14 1017.3 - 0.4 - Mostly clear 10 - - - -
23/04:30pm 20.4 SSW 13 18 1017.3 - 0.4 Showers Partly cloudy 10 - - - -
23/04:00pm 20.4 SSW 13 16 1017.3 - 0.2 - Partly cloudy 10 - - - -
23/03:30pm 21.1 SSW 13 16 1017.5 - 0.2 Showers Partly cloudy 10 - - - -
23/03:00pm 21.5 SSW 15 18 1017.5 S 0.2 Showers Cloudy 20 - - - -
23/02:30pm 21.5 SSW 15 21 1017.6 - 0.2 Showers Mostly clear 10 - - - -
23/02:00pm 21.9 SSW 14 23 1017.8 - 0.2 - Mostly clear 10 - - - -
23/01:30pm 21.6 SSW 14 17 1018.5 - 0.2 - Mostly clear 10 - - - -
23/01:00pm 22.0 SSW 14 17 1018.8 - 0.2 - Mostly clear 10 - - - -
23/12:30pm 21.6 SSW 15 22 1019.1 - 0.2 Showers Partly cloudy 10 - - - -
23/12:20pm 22.0 SSW 15 26 1019.1 - 0.2 - Mostly clear 10 - - - -
23/12:00pm 22.1 SSW 14 20 1019.2 R 0.2 Fine Mostly cloudy 30 - - - -
23/11:30am 21.8 SSW 14 18 1019.2 - 0.2 - Partly cloudy 10 - - - -
23/11:00am 22.0 SSW 15 20 1019.2 - 0.0 - Partly cloudy 10 - - - -
23/10:30am 22.0 SSW 14 18 1019.0 - 0.0 - Partly cloudy 10 - - - -
23/10:00am 21.9 SSW 15 20 1018.8 - 0.0 - Mostly clear 10 - - - -
23/09:30am 21.4 SSW 14 18 1018.7 - 0.0 - Mostly clear 10 - - - -
23/09:00am 21.2 SSW 16 19 1018.5 R 7.4 Fine Mostly cloudy 30 - - - -
23/08:30am 21.3 SW 13 17 1018.3 - 7.4 - Partly cloudy 10 - - - -
23/08:00am 21.2 SSW 14 19 1017.9 - 7.4 - Mostly clear 10 - - - -
23/07:30am 21.2 SSW 15 19 1017.6 - 7.4 - Partly cloudy 10 - - - -
23/07:00am 21.1 SSW 16 20 1017.2 - 7.4 - Partly cloudy 10 - - - -
23/06:30am 21.1 SSW 16 25 1017.1 - 7.4 - Mostly clear 10 - - - -
23/06:00am 21.1 SSW 16 19 1016.8 R 7.4 Fine Mostly cloudy 30 - - - -
23/05:30am 21.2 SSW 15 20 1016.5 - 7.4 - Mostly clear 10 - - - -
23/05:00am 21.2 SSW 15 21 1016.1 - 7.4 - Partly cloudy 10 - - - -
23/04:30am 21.5 SSW 16 19 1016.2 - 7.4 - Partly cloudy 10 - - - -
23/04:00am 21.2 SSW 15 21 1016.4 - 7.4 - Mostly clear 10 - - - -
23/03:30am 21.3 SSW 14 18 1016.1 - 7.4 - Mostly clear 10 - - - -
23/03:00am 21.4 SSW 17 21 1016.1 R 7.4 Fine Mostly cloudy 25 - - - -
23/02:30am 21.4 SSW 19 26 1016.3 - 7.4 - Mostly clear 10 - - - -
23/02:00am 21.4 SSW 21 29 1016.3 - 7.4 - Mostly clear 10 - - - -
23/01:30am 21.9 SSW 21 25 1016.2 - 7.4 - Mostly clear 10 - - - -
23/01:00am 21.8 SSW 19 27 1016.1 - 7.4 - Mostly clear 10 - - - -
23/12:30am 21.7 SSW 17 21 1016.2 - 7.4 - Mostly clear 10 - - - -
23/12:00am 21.8 SSW 18 23 1016.2 R 7.4 Fine Mostly cloudy 20 - - - -
 
Date/Time
EDT
Temp
°C
Wind Pressure Rain since
9am
mm
Weather Cloud Vis
km
Sea
Height
m
Swell
Dir  Spd
kts
Gust
kts
hPa Trend Height
m
Period
s
Dir
22/11:30pm 21.9 SSW 17 22 1016.2 - 7.4 - Partly cloudy 10 - - - -
22/11:00pm 22.3 S 18 23 1016.2 - 7.4 - Partly cloudy 10 - - - -
22/10:30pm 22.4 S 16 26 1016.1 - 7.4 - Partly cloudy 10 - - - -
22/10:00pm 22.6 S 17 21 1016.0 - 7.4 - Mostly cloudy 10 - - - -
22/09:30pm 22.7 S 17 22 1015.2 - 7.4 - Partly cloudy 10 - - - -
22/09:00pm 22.4 SSW 14 17 1014.9 R 7.4 Fine Partly cloudy 30 - - - -
22/08:30pm 21.8 SSW 10 17 1014.2 - 7.4 - Mostly clear 10 - - - -
22/08:00pm 22.3 W 6 13 1013.3 - 7.4 - Partly cloudy 10 - - - -
22/07:30pm 21.7 W 9 12 1013.5 - 7.4 - Mostly clear 10 - - - -
22/07:00pm 22.3 WNW 10 13 1012.7 - 7.4 - Mostly clear 10 - - - -
22/06:30pm 22.7 ENE 13 15 1012.0 - 7.4 Showers Mostly clear 10 - - - -
22/06:00pm 21.6 NE 12 15 1012.1 R 7.4 Thunderstorm Mostly cloudy 15 - - - -
22/05:45pm 21.3 SSE 11 16 1013.3 - 7.4 Showers Mostly clear 6 - - - -
22/05:36pm 20.9 SSW 17 22 1013.5 - 6.8 Thunderstorm Partly cloudy 3 - - - -
22/05:30pm 21.2 SSW 21 31 1013.7 - 5.2 Showers Partly cloudy 2 - - - -
22/05:29pm 21.5 SW 22 31 1013.7 - 4.6 Showers Partly cloudy 3 - - - -
22/05:25pm 21.8 SW 25 31 1013.5 - 3.6 Showers Mostly clear 9 - - - -
22/05:12pm 24.0 W 15 27 1013.2 - 2.8 Showers Mostly clear 10 - - - -
22/05:00pm 24.0 W 7 11 1012.5 - 2.4 - Mostly clear 10 - - - -
22/04:30pm 25.4 ENE 6 10 1011.7 - 0.4 Thunderstorm Mostly clear 10 - - - -
22/04:00pm 28.8 ESE 11 15 1010.1 - 0.0 - Mostly clear 10 - - - -
22/03:56pm 28.7 SE 10 15 1010.3 - 0.0 Thunder Mostly clear 10 - - - -
22/03:30pm 29.5 SE 10 13 1010.4 - 0.0 Thunder Mostly clear 10 - - - -
22/03:00pm 30.9 SE 11 14 1010.6 R 0.0 Fine Mostly cloudy 25 - - - -
22/02:30pm 31.4 ESE 6 8 1010.6 - 0.0 - Mostly clear 10 - - - -
22/02:00pm 30.2 S 5 7 1011.1 - 0.0 - Mostly clear 10 - - - -
22/01:30pm 29.5 E 2 4 1011.3 - 0.0 - Mostly clear 10 - - - -
22/01:00pm 29.4 NNW 4 6 1011.3 - 0.0 - Mostly clear 10 - - - -
22/12:30pm 30.3 NW 6 9 1011.5 - 0.0 - Mostly clear 10 - - - -
22/12:00pm 28.6 NW 5 8 1012.0 F 0.0 Haze Partly cloudy 25 - - - -
22/11:30am 27.7 NW 6 8 1012.4 - 0.0 - Mostly clear 10 - - - -
22/11:00am 26.9 NW 6 8 1012.8 - 0.0 - Mostly clear 10 - - - -
22/10:30am 26.4 NW 6 9 1012.8 - 0.0 - Mostly clear 10 - - - -
22/10:00am 26.1 WNW 5 7 1012.8 - 0.0 - Mostly clear 10 - - - -
22/09:30am 25.9 NW 5 8 1012.6 - 0.0 - Mostly clear 10 - - - -
22/09:00am 25.4 NW 4 6 1012.4 R 29.2 Haze Mostly cloudy 25 - - - -
22/08:30am 23.5 W 5 6 1012.2 - 29.2 - Mostly clear 10 - - - -
22/08:00am 24.9 WNW 5 8 1011.8 - 29.2 - Mostly clear 10 - - - -
22/07:30am 24.2 NNW 6 8 1011.5 - 29.2 - Mostly clear 10 - - - -
22/07:00am 23.9 NNW 7 9 1011.2 - 29.2 - Mostly clear 10 - - - -
22/06:30am 24.0 N 7 8 1010.8 - 29.2 - Mostly clear 10 - - - -
22/06:00am 23.5 NNE 7 9 1010.6 S 29.2 Fine Mostly cloudy 25 - - - -
22/05:30am 23.2 NNW 4 6 1010.5 - - - Mostly clear 10 - - - -
22/05:00am 23.1 NNW 6 8 1010.4 - - - Mostly clear 10 - - - -
22/04:30am 23.0 NNW 6 7 1010.2 - - - Mostly clear 10 - - - -
22/04:00am 23.0 WNW 8 10 1010.2 - - - Mostly clear 10 - - - -
22/03:30am 23.0 NW 9 13 1010.5 - - - Partly cloudy 10 - - - -
22/03:00am 23.1 WNW 7 9 1010.6 F 0.2 Fine Cloudy 20 - - - -
22/02:30am 23.2 NW 8 10 1010.7 - - - Partly cloudy 10 - - - -
22/02:00am 23.2 NW 10 13 1011.3 - - - Mostly clear 10 - - - -
22/01:30am 23.1 WNW 9 12 1011.8 - - Showers Mostly clear 10 - - - -
22/01:00am 23.1 WNW 6 7 1012.0 - - - Mostly clear 10 - - - -
22/12:30am 23.0 NW 8 11 1012.2 - - Rain Mostly clear 10 - - - -
22/12:00am 23.2 NNW 7 9 1012.5 F - Distant precip. Mostly cloudy 20 - - - -
 
Date/Time
EDT
Temp
°C
Wind Pressure Rain since
9am
mm
Weather Cloud Vis
km
Sea
Height
m
Swell
Dir  Spd
kts
Gust
kts
hPa Trend Height
m
Period
s
Dir
21/11:30pm 23.4 NW 10 14 1012.7 - - Rain Mostly clear 10 - - - -
21/11:00pm 23.4 NW 9 11 1013.0 - - - Mostly clear 10 - - - -
21/10:30pm 23.8 NW 7 9 1013.1 - - - Mostly clear 10 - - - -
21/10:00pm 24.3 N 7 10 1012.9 - - - Mostly clear 10 - - - -
21/09:30pm 24.4 N 10 14 1013.1 - - - Mostly clear 10 - - - -
21/09:00pm 24.2 NE 13 16 1012.7 F 29.0 Lightning Cloudy 18 - - - -
21/08:30pm 24.2 NE 9 10 1012.9 - - Showers Mostly clear 10 - - - -
21/08:00pm 23.7 ENE 8 11 1012.9 - - - Mostly clear 10 - - - -
21/07:49pm 23.7 NE 10 12 1012.5 - - Showers Mostly clear 10 - - - -
21/07:30pm 24.0 NW 3 6 1013.2 - - Showers Mostly clear 5 - - - -
21/07:00pm 23.7 E 3 5 1013.2 - - - Partly cloudy 10 - - - -
21/06:30pm 23.5 NE 5 7 1012.7 - - Thunderstorm Mostly clear 10 - - - -
21/06:00pm 23.0 ESE 6 8 1012.5 R - Thunderstorm Cloudy 15 - - - -
21/05:46pm 22.8 SSW 8 12 1012.6 - 25.0 Thunderstorm Partly cloudy 8 - - - -
21/05:30pm 22.9 N 11 17 1012.9 - 0.0 Thunderstorm Partly cloudy 0.8 - - - -
21/05:24pm 23.8 N 8 11 1012.8 - 10.8 Thunderstorm Partly cloudy 1 - - - -
21/05:18pm 24.7 NNE 5 7 1013.0 - 3.8 Thunderstorm Partly cloudy 2 - - - -
21/05:14pm 25.3 NNE 5 7 1012.9 - 0.6 Thunderstorm Partly cloudy 6 - - - -
21/05:00pm 25.2 ENE 8 10 1012.3 - 0.0 - Partly cloudy 10 - - - -
21/04:35pm 25.7 ENE 7 8 1012.6 - 0.0 Thunderstorm Partly cloudy 10 - - - -
21/04:30pm 25.9 ENE 7 9 1012.6 - 0.0 Thunder Partly cloudy 10 - - - -
21/04:00pm 26.4 ENE 11 14 1012.0 - 0.0 - Mostly clear 10 - - - -
21/03:30pm 27.3 E 11 13 1012.2 - 0.0 - Mostly clear 10 - - - -
21/03:00pm 27.4 ENE 9 12 1012.4 F 0.0 Fine Mostly cloudy 25 - - - -
21/02:30pm 27.7 ENE 11 14 1012.7 - 0.0 - Mostly clear 10 - - - -
21/02:00pm 26.7 ENE 13 16 1013.1 - 0.0 - Mostly clear 10 - - - -
21/01:30pm 28.1 NE 12 14 1013.4 - 0.0 - Mostly clear 10 - - - -
21/01:00pm 27.6 NE 1 8 1013.8 - - - Partly cloudy 10 - - - -
21/12:30pm 27.7 NNE 6 9 1014.1 - 0.0 - Mostly clear 10 - - - -
21/12:00pm 27.4 ENE 6 9 1014.7 F 0.0 Fine Mostly cloudy 22 - - - -
21/11:30am 26.1 CALM 0 0 1015.2 - 0.0 - Mostly clear 10 - - - -
21/11:00am 26.3 NE 5 7 1015.4 - 0.0 - Mostly clear 10 - - - -
21/10:30am 25.4 NE 7 9 1015.5 - 0.0 - Mostly clear 10 - - - -
21/10:00am 25.3 NNE 7 8 1015.8 - 0.0 - Mostly clear 10 - - - -
21/09:30am 25.3 NE 7 9 1015.7 - 0.0 - Mostly clear 10 - - - -
21/09:00am 25.7 NNE 8 10 1015.6 F 0.0 Showers Mostly cloudy 20 - - - -
21/08:30am 25.1 NNE 9 10 1015.6 - - - Mostly clear 10 - - - -
21/08:00am 24.8 NNE 10 14 1015.4 - - - Partly cloudy 10 - - - -
21/07:30am 24.8 NNE 10 12 1015.3 - - - Mostly clear 10 - - - -
21/07:00am 24.7 NNE 9 11 1015.1 - - - Mostly clear 10 - - - -
21/06:50am 24.5 NNE 8 12 1015.1 - 0.0 - Mostly clear 10 - - - -
21/06:30am 24.4 NNE 9 12 1014.8 - - - Partly cloudy 10 - - - -
21/06:00am 23.8 NNE 8 10 1014.4 F 0.0 Haze Mostly cloudy 15 - - - -
21/05:30am 23.5 NNE 9 12 1014.3 - - - Mostly clear 10 - - - -
21/05:00am 23.7 NE 9 10 1014.4 - - - Mostly clear 10 - - - -
21/04:30am 23.9 NNE 9 12 1014.6 - - - Mostly clear 10 - - - -
21/04:00am 23.9 NNE 8 9 1014.8 - - - Mostly clear 10 - - - -
21/03:30am 24.0 NNE 10 13 1014.8 - - - Mostly clear 10 - - - -
21/03:00am 23.9 NNE 9 12 1014.9 F 0.0 Haze Mostly cloudy 15 - - - -
21/02:30am 24.1 NNE 9 11 1015.3 - - - Mostly clear 10 - - - -
21/02:00am 24.0 NNE 9 13 1015.5 - - - Mostly clear 10 - - - -
21/01:30am 24.2 NNE 9 14 1015.6 - - - Mostly clear 10 - - - -

Other Formats:

Comma delimited format used in spreadsheet applications
http://www.bom.gov.au/fwo/IDN60701/IDN60701.94767.axf

JavaScript Object Notation format (JSON) in row-major order
http://www.bom.gov.au/fwo/IDN60701/IDN60701.94767.json